sensor_id;sensor_type;location;lat;lon;timestamp;temperature;humidity
7447;DHT22;3765;47.962;7.952;2022-11-14T00:01:47;3.90;82.40
7447;DHT22;3765;47.962;7.952;2022-11-14T00:04:15;3.90;82.30
7447;DHT22;3765;47.962;7.952;2022-11-14T00:06:43;3.90;82.20
7447;DHT22;3765;47.962;7.952;2022-11-14T00:09:11;3.90;82.20
7447;DHT22;3765;47.962;7.952;2022-11-14T00:11:39;3.90;82.30
7447;DHT22;3765;47.962;7.952;2022-11-14T00:14:10;3.90;82.30
7447;DHT22;3765;47.962;7.952;2022-11-14T00:16:38;3.90;82.30
7447;DHT22;3765;47.962;7.952;2022-11-14T00:19:06;3.90;82.50
7447;DHT22;3765;47.962;7.952;2022-11-14T00:21:34;4.00;82.60
7447;DHT22;3765;47.962;7.952;2022-11-14T00:24:03;4.00;82.40
7447;DHT22;3765;47.962;7.952;2022-11-14T00:26:31;4.00;82.50
7447;DHT22;3765;47.962;7.952;2022-11-14T00:28:59;3.90;82.40
7447;DHT22;3765;47.962;7.952;2022-11-14T00:31:29;3.80;82.50
7447;DHT22;3765;47.962;7.952;2022-11-14T00:33:57;3.80;82.50
7447;DHT22;3765;47.962;7.952;2022-11-14T00:36:25;3.80;82.70
7447;DHT22;3765;47.962;7.952;2022-11-14T00:38:53;3.90;82.80
7447;DHT22;3765;47.962;7.952;2022-11-14T00:41:22;4.00;82.70
7447;DHT22;3765;47.962;7.952;2022-11-14T00:43:50;4.00;82.70
7447;DHT22;3765;47.962;7.952;2022-11-14T00:46:18;4.10;82.70
7447;DHT22;3765;47.962;7.952;2022-11-14T00:48:48;4.10;82.70
7447;DHT22;3765;47.962;7.952;2022-11-14T00:51:16;4.10;82.70
7447;DHT22;3765;47.962;7.952;2022-11-14T00:53:44;4.10;82.60
7447;DHT22;3765;47.962;7.952;2022-11-14T00:56:12;4.10;82.60
7447;DHT22;3765;47.962;7.952;2022-11-14T00:58:40;4.00;82.50
7447;DHT22;3765;47.962;7.952;2022-11-14T01:01:08;4.00;82.50
7447;DHT22;3765;47.962;7.952;2022-11-14T01:03:37;3.90;82.50
7447;DHT22;3765;47.962;7.952;2022-11-14T01:06:09;3.90;82.60
7447;DHT22;3765;47.962;7.952;2022-11-14T01:08:39;4.00;82.70
7447;DHT22;3765;47.962;7.952;2022-11-14T01:11:09;4.00;82.60
7447;DHT22;3765;47.962;7.952;2022-11-14T01:13:38;4.10;82.70
7447;DHT22;3765;47.962;7.952;2022-11-14T01:16:07;4.10;82.70
7447;DHT22;3765;47.962;7.952;2022-11-14T01:18:36;4.10;82.70
7447;DHT22;3765;47.962;7.952;2022-11-14T01:21:08;4.10;82.70
7447;DHT22;3765;47.962;7.952;2022-11-14T01:23:37;4.00;82.60
7447;DHT22;3765;47.962;7.952;2022-11-14T01:26:07;4.00;82.60
7447;DHT22;3765;47.962;7.952;2022-11-14T01:28:35;4.00;82.60
7447;DHT22;3765;47.962;7.952;2022-11-14T01:31:10;4.00;82.60
7447;DHT22;3765;47.962;7.952;2022-11-14T01:33:38;4.00;82.50
7447;DHT22;3765;47.962;7.952;2022-11-14T01:36:09;4.00;82.60
7447;DHT22;3765;47.962;7.952;2022-11-14T01:38:37;4.00;82.60
7447;DHT22;3765;47.962;7.952;2022-11-14T01:41:06;4.00;82.50
7447;DHT22;3765;47.962;7.952;2022-11-14T01:43:35;4.10;82.90
7447;DHT22;3765;47.962;7.952;2022-11-14T01:46:06;4.10;82.60
7447;DHT22;3765;47.962;7.952;2022-11-14T01:48:39;4.00;82.60
7447;DHT22;3765;47.962;7.952;2022-11-14T01:51:16;4.00;82.70
7447;DHT22;3765;47.962;7.952;2022-11-14T01:53:47;4.00;82.80
7447;DHT22;3765;47.962;7.952;2022-11-14T01:56:20;4.00;82.90
7447;DHT22;3765;47.962;7.952;2022-11-14T01:58:52;3.90;82.90
7447;DHT22;3765;47.962;7.952;2022-11-14T02:01:21;3.90;82.90
7447;DHT22;3765;47.962;7.952;2022-11-14T02:03:53;3.90;82.90
7447;DHT22;3765;47.962;7.952;2022-11-14T02:06:26;3.90;83.00
7447;DHT22;3765;47.962;7.952;2022-11-14T02:08:55;3.90;83.00
7447;DHT22;3765;47.962;7.952;2022-11-14T02:11:28;4.00;83.10
7447;DHT22;3765;47.962;7.952;2022-11-14T02:13:57;4.00;83.10
7447;DHT22;3765;47.962;7.952;2022-11-14T02:16:26;3.90;83.10
7447;DHT22;3765;47.962;7.952;2022-11-14T02:18:54;3.90;83.10
7447;DHT22;3765;47.962;7.952;2022-11-14T02:21:24;3.90;83.20
7447;DHT22;3765;47.962;7.952;2022-11-14T02:23:52;3.90;83.20
7447;DHT22;3765;47.962;7.952;2022-11-14T02:26:21;3.90;83.20
7447;DHT22;3765;47.962;7.952;2022-11-14T02:28:49;3.90;83.10
7447;DHT22;3765;47.962;7.952;2022-11-14T02:31:18;4.00;83.30
7447;DHT22;3765;47.962;7.952;2022-11-14T02:33:46;4.10;83.30
7447;DHT22;3765;47.962;7.952;2022-11-14T02:36:14;4.10;83.20
7447;DHT22;3765;47.962;7.952;2022-11-14T02:38:43;4.00;83.20
7447;DHT22;3765;47.962;7.952;2022-11-14T02:41:12;3.90;83.20
7447;DHT22;3765;47.962;7.952;2022-11-14T02:43:40;4.00;83.20
7447;DHT22;3765;47.962;7.952;2022-11-14T02:46:08;4.00;83.20
7447;DHT22;3765;47.962;7.952;2022-11-14T02:48:37;3.90;83.20
7447;DHT22;3765;47.962;7.952;2022-11-14T02:51:05;3.90;83.20
7447;DHT22;3765;47.962;7.952;2022-11-14T02:53:33;3.90;83.20
7447;DHT22;3765;47.962;7.952;2022-11-14T02:56:03;4.00;83.40
7447;DHT22;3765;47.962;7.952;2022-11-14T02:58:31;4.00;83.20
7447;DHT22;3765;47.962;7.952;2022-11-14T03:00:59;4.00;83.40
7447;DHT22;3765;47.962;7.952;2022-11-14T03:03:47;4.10;83.60
7447;DHT22;3765;47.962;7.952;2022-11-14T03:06:16;4.10;83.60
7447;DHT22;3765;47.962;7.952;2022-11-14T03:08:44;4.20;83.50
7447;DHT22;3765;47.962;7.952;2022-11-14T03:11:13;4.30;83.50
7447;DHT22;3765;47.962;7.952;2022-11-14T03:13:41;4.30;83.50
7447;DHT22;3765;47.962;7.952;2022-11-14T03:16:11;4.30;83.50
7447;DHT22;3765;47.962;7.952;2022-11-14T03:18:40;4.30;83.50
7447;DHT22;3765;47.962;7.952;2022-11-14T03:21:10;4.40;83.60
7447;DHT22;3765;47.962;7.952;2022-11-14T03:23:39;4.40;83.60
7447;DHT22;3765;47.962;7.952;2022-11-14T03:26:09;4.40;83.50
7447;DHT22;3765;47.962;7.952;2022-11-14T03:28:39;4.40;83.50
7447;DHT22;3765;47.962;7.952;2022-11-14T03:31:10;4.50;83.50
7447;DHT22;3765;47.962;7.952;2022-11-14T03:33:38;4.60;83.50
7447;DHT22;3765;47.962;7.952;2022-11-14T03:36:07;4.60;83.40
7447;DHT22;3765;47.962;7.952;2022-11-14T03:38:35;4.70;83.50
7447;DHT22;3765;47.962;7.952;2022-11-14T03:41:04;4.70;83.60
7447;DHT22;3765;47.962;7.952;2022-11-14T03:43:33;4.80;83.60
7447;DHT22;3765;47.962;7.952;2022-11-14T03:46:03;4.80;83.60
7447;DHT22;3765;47.962;7.952;2022-11-14T03:48:31;4.90;83.50
7447;DHT22;3765;47.962;7.952;2022-11-14T03:50:59;4.90;83.50
7447;DHT22;3765;47.962;7.952;2022-11-14T03:53:28;5.00;83.60
7447;DHT22;3765;47.962;7.952;2022-11-14T03:55:56;4.90;83.30
7447;DHT22;3765;47.962;7.952;2022-11-14T03:58:24;5.00;83.60
7447;DHT22;3765;47.962;7.952;2022-11-14T04:00:53;5.10;83.40
7447;DHT22;3765;47.962;7.952;2022-11-14T04:03:26;5.10;83.50
7447;DHT22;3765;47.962;7.952;2022-11-14T04:05:55;5.00;83.30
7447;DHT22;3765;47.962;7.952;2022-11-14T04:08:23;5.10;83.60
7447;DHT22;3765;47.962;7.952;2022-11-14T04:10:51;5.20;83.50
7447;DHT22;3765;47.962;7.952;2022-11-14T04:13:19;5.30;83.40
7447;DHT22;3765;47.962;7.952;2022-11-14T04:15:53;5.30;83.40
7447;DHT22;3765;47.962;7.952;2022-11-14T04:18:22;5.30;83.50
7447;DHT22;3765;47.962;7.952;2022-11-14T04:20:52;5.40;83.50
7447;DHT22;3765;47.962;7.952;2022-11-14T04:23:20;5.40;83.20
7447;DHT22;3765;47.962;7.952;2022-11-14T04:25:48;5.40;83.60
7447;DHT22;3765;47.962;7.952;2022-11-14T04:28:17;5.40;83.50
7447;DHT22;3765;47.962;7.952;2022-11-14T04:30:45;5.50;83.60
7447;DHT22;3765;47.962;7.952;2022-11-14T04:33:13;5.50;83.50
7447;DHT22;3765;47.962;7.952;2022-11-14T04:35:41;5.50;83.60
7447;DHT22;3765;47.962;7.952;2022-11-14T04:38:11;5.60;83.60
7447;DHT22;3765;47.962;7.952;2022-11-14T04:40:39;5.60;83.50
7447;DHT22;3765;47.962;7.952;2022-11-14T04:43:07;5.70;83.70
7447;DHT22;3765;47.962;7.952;2022-11-14T04:45:35;5.80;83.60
7447;DHT22;3765;47.962;7.952;2022-11-14T04:48:04;5.80;83.50
7447;DHT22;3765;47.962;7.952;2022-11-14T04:50:32;5.90;83.60
7447;DHT22;3765;47.962;7.952;2022-11-14T04:53:00;6.00;83.60
7447;DHT22;3765;47.962;7.952;2022-11-14T04:55:29;6.00;83.60
7447;DHT22;3765;47.962;7.952;2022-11-14T04:57:58;6.00;83.70
7447;DHT22;3765;47.962;7.952;2022-11-14T05:00:26;6.00;83.60
7447;DHT22;3765;47.962;7.952;2022-11-14T05:02:54;6.10;83.70
7447;DHT22;3765;47.962;7.952;2022-11-14T05:05:25;6.10;83.80
7447;DHT22;3765;47.962;7.952;2022-11-14T05:07:53;6.10;83.80
7447;DHT22;3765;47.962;7.952;2022-11-14T05:10:21;6.20;84.00
7447;DHT22;3765;47.962;7.952;2022-11-14T05:12:53;6.10;83.90
7447;DHT22;3765;47.962;7.952;2022-11-14T05:15:21;6.20;83.90
7447;DHT22;3765;47.962;7.952;2022-11-14T05:17:50;6.30;83.90
7447;DHT22;3765;47.962;7.952;2022-11-14T05:20:18;6.30;84.00
7447;DHT22;3765;47.962;7.952;2022-11-14T05:22:46;6.30;83.90
7447;DHT22;3765;47.962;7.952;2022-11-14T05:25:14;6.30;83.90
7447;DHT22;3765;47.962;7.952;2022-11-14T05:27:43;6.30;84.10
7447;DHT22;3765;47.962;7.952;2022-11-14T05:30:13;6.40;84.10
7447;DHT22;3765;47.962;7.952;2022-11-14T05:32:41;6.50;84.00
7447;DHT22;3765;47.962;7.952;2022-11-14T05:35:10;6.60;84.00
7447;DHT22;3765;47.962;7.952;2022-11-14T05:37:38;6.60;84.00
7447;DHT22;3765;47.962;7.952;2022-11-14T05:40:07;6.60;84.00
7447;DHT22;3765;47.962;7.952;2022-11-14T05:42:36;6.70;84.10
7447;DHT22;3765;47.962;7.952;2022-11-14T05:45:05;6.70;84.00
7447;DHT22;3765;47.962;7.952;2022-11-14T05:47:35;6.80;84.00
7447;DHT22;3765;47.962;7.952;2022-11-14T05:50:03;6.80;84.10
7447;DHT22;3765;47.962;7.952;2022-11-14T05:52:32;6.80;84.00
7447;DHT22;3765;47.962;7.952;2022-11-14T05:55:00;6.90;84.10
7447;DHT22;3765;47.962;7.952;2022-11-14T05:57:29;6.90;84.10
7447;DHT22;3765;47.962;7.952;2022-11-14T05:59:57;7.00;84.10
7447;DHT22;3765;47.962;7.952;2022-11-14T06:02:26;7.10;84.10
7447;DHT22;3765;47.962;7.952;2022-11-14T06:04:55;7.00;84.00
7447;DHT22;3765;47.962;7.952;2022-11-14T06:07:23;7.00;83.90
7447;DHT22;3765;47.962;7.952;2022-11-14T06:09:52;6.90;84.10
7447;DHT22;3765;47.962;7.952;2022-11-14T06:12:20;7.00;84.00
7447;DHT22;3765;47.962;7.952;2022-11-14T06:14:48;7.00;84.10
7447;DHT22;3765;47.962;7.952;2022-11-14T06:17:16;7.00;84.10
7447;DHT22;3765;47.962;7.952;2022-11-14T06:19:44;7.10;84.20
7447;DHT22;3765;47.962;7.952;2022-11-14T06:22:14;7.10;84.30
7447;DHT22;3765;47.962;7.952;2022-11-14T06:24:42;7.20;84.20
7447;DHT22;3765;47.962;7.952;2022-11-14T06:27:10;7.10;84.10
7447;DHT22;3765;47.962;7.952;2022-11-14T06:29:39;7.10;84.50
7447;DHT22;3765;47.962;7.952;2022-11-14T06:32:07;7.20;84.40
7447;DHT22;3765;47.962;7.952;2022-11-14T06:34:35;7.20;84.60
7447;DHT22;3765;47.962;7.952;2022-11-14T06:37:03;7.30;84.60
7447;DHT22;3765;47.962;7.952;2022-11-14T06:39:33;7.30;84.50
7447;DHT22;3765;47.962;7.952;2022-11-14T06:42:01;7.40;84.60
7447;DHT22;3765;47.962;7.952;2022-11-14T06:44:29;7.50;84.70
7447;DHT22;3765;47.962;7.952;2022-11-14T06:46:58;7.50;84.60
7447;DHT22;3765;47.962;7.952;2022-11-14T06:49:28;7.60;84.50
7447;DHT22;3765;47.962;7.952;2022-11-14T06:52:03;7.60;84.50
7447;DHT22;3765;47.962;7.952;2022-11-14T06:54:33;7.60;84.40
7447;DHT22;3765;47.962;7.952;2022-11-14T06:57:02;7.60;84.60
7447;DHT22;3765;47.962;7.952;2022-11-14T06:59:30;7.70;84.60
7447;DHT22;3765;47.962;7.952;2022-11-14T07:01:58;7.80;84.60
7447;DHT22;3765;47.962;7.952;2022-11-14T07:04:26;7.80;84.40
7447;DHT22;3765;47.962;7.952;2022-11-14T07:06:54;7.80;84.60
7447;DHT22;3765;47.962;7.952;2022-11-14T07:09:23;7.90;84.60
7447;DHT22;3765;47.962;7.952;2022-11-14T07:11:52;7.90;84.60
7447;DHT22;3765;47.962;7.952;2022-11-14T07:14:20;8.00;84.60
7447;DHT22;3765;47.962;7.952;2022-11-14T07:16:48;8.20;84.70
7447;DHT22;3765;47.962;7.952;2022-11-14T07:29:51;8.30;84.60
7447;DHT22;3765;47.962;7.952;2022-11-14T07:32:19;10.10;82.90
7447;DHT22;3765;47.962;7.952;2022-11-14T07:34:47;10.30;82.50
7447;DHT22;3765;47.962;7.952;2022-11-14T07:37:15;10.60;81.90
7447;DHT22;3765;47.962;7.952;2022-11-14T07:39:44;10.80;81.20
7447;DHT22;3765;47.962;7.952;2022-11-14T07:42:12;10.90;80.70
7447;DHT22;3765;47.962;7.952;2022-11-14T07:44:41;11.10;80.30
7447;DHT22;3765;47.962;7.952;2022-11-14T07:47:10;11.10;79.90
7447;DHT22;3765;47.962;7.952;2022-11-14T07:49:38;11.20;79.40
7447;DHT22;3765;47.962;7.952;2022-11-14T07:52:06;11.30;79.20
7447;DHT22;3765;47.962;7.952;2022-11-14T07:54:35;11.30;78.80
7447;DHT22;3765;47.962;7.952;2022-11-14T07:57:04;11.40;78.30
7447;DHT22;3765;47.962;7.952;2022-11-14T07:59:32;11.50;77.90
7447;DHT22;3765;47.962;7.952;2022-11-14T08:02:00;11.50;77.90
7447;DHT22;3765;47.962;7.952;2022-11-14T08:04:30;11.50;77.70
7447;DHT22;3765;47.962;7.952;2022-11-14T08:07:01;11.60;77.40
7447;DHT22;3765;47.962;7.952;2022-11-14T08:09:29;11.70;77.40
7447;DHT22;3765;47.962;7.952;2022-11-14T08:11:57;11.60;77.00
7447;DHT22;3765;47.962;7.952;2022-11-14T08:14:25;11.70;77.00
7447;DHT22;3765;47.962;7.952;2022-11-14T08:16:53;11.70;76.60
7447;DHT22;3765;47.962;7.952;2022-11-14T08:19:22;11.80;76.40
7447;DHT22;3765;47.962;7.952;2022-11-14T08:21:51;11.80;76.10
7447;DHT22;3765;47.962;7.952;2022-11-14T08:24:19;11.90;76.00
7447;DHT22;3765;47.962;7.952;2022-11-14T08:26:48;11.90;75.60
7447;DHT22;3765;47.962;7.952;2022-11-14T08:29:16;11.90;75.60
7447;DHT22;3765;47.962;7.952;2022-11-14T08:31:44;11.90;75.20
7447;DHT22;3765;47.962;7.952;2022-11-14T08:34:12;12.00;75.50
7447;DHT22;3765;47.962;7.952;2022-11-14T08:36:41;12.00;75.40
7447;DHT22;3765;47.962;7.952;2022-11-14T08:39:10;12.10;75.30
7447;DHT22;3765;47.962;7.952;2022-11-14T08:41:39;12.20;74.80
7447;DHT22;3765;47.962;7.952;2022-11-14T08:44:07;12.10;74.60
7447;DHT22;3765;47.962;7.952;2022-11-14T08:46:36;12.20;74.50
7447;DHT22;3765;47.962;7.952;2022-11-14T08:49:04;12.10;74.10
7447;DHT22;3765;47.962;7.952;2022-11-14T08:51:32;12.10;74.10
7447;DHT22;3765;47.962;7.952;2022-11-14T08:54:02;12.30;74.20
7447;DHT22;3765;47.962;7.952;2022-11-14T08:56:32;12.30;74.10
7447;DHT22;3765;47.962;7.952;2022-11-14T08:59:02;12.30;74.30
7447;DHT22;3765;47.962;7.952;2022-11-14T09:01:30;12.40;74.10
7447;DHT22;3765;47.962;7.952;2022-11-14T09:03:59;12.30;73.80
7447;DHT22;3765;47.962;7.952;2022-11-14T09:06:27;12.30;73.50
7447;DHT22;3765;47.962;7.952;2022-11-14T09:08:56;12.30;73.30
7447;DHT22;3765;47.962;7.952;2022-11-14T09:11:25;12.30;73.50
7447;DHT22;3765;47.962;7.952;2022-11-14T09:13:54;12.40;73.40
7447;DHT22;3765;47.962;7.952;2022-11-14T09:16:22;12.30;73.30
7447;DHT22;3765;47.962;7.952;2022-11-14T09:18:51;12.30;73.10
7447;DHT22;3765;47.962;7.952;2022-11-14T09:21:19;12.30;72.90
7447;DHT22;3765;47.962;7.952;2022-11-14T09:23:47;12.50;73.00
7447;DHT22;3765;47.962;7.952;2022-11-14T09:26:15;12.50;72.80
7447;DHT22;3765;47.962;7.952;2022-11-14T09:28:45;12.50;72.20
7447;DHT22;3765;47.962;7.952;2022-11-14T09:31:14;12.50;72.10
7447;DHT22;3765;47.962;7.952;2022-11-14T09:33:43;12.50;72.00
7447;DHT22;3765;47.962;7.952;2022-11-14T09:36:11;12.50;71.90
7447;DHT22;3765;47.962;7.952;2022-11-14T09:38:42;12.50;71.70
7447;DHT22;3765;47.962;7.952;2022-11-14T09:41:22;12.40;71.80
7447;DHT22;3765;47.962;7.952;2022-11-14T09:44:22;12.50;71.70
7447;DHT22;3765;47.962;7.952;2022-11-14T09:46:56;12.50;71.70
7447;DHT22;3765;47.962;7.952;2022-11-14T09:49:29;12.60;71.70
7447;DHT22;3765;47.962;7.952;2022-11-14T09:52:04;12.60;71.70
7447;DHT22;3765;47.962;7.952;2022-11-14T09:54:43;12.60;71.40
7447;DHT22;3765;47.962;7.952;2022-11-14T09:57:15;12.60;71.30
7447;DHT22;3765;47.962;7.952;2022-11-14T09:59:43;12.70;71.20
7447;DHT22;3765;47.962;7.952;2022-11-14T10:02:24;12.70;70.90
7447;DHT22;3765;47.962;7.952;2022-11-14T10:05:08;12.80;71.00
7447;DHT22;3765;47.962;7.952;2022-11-14T10:07:48;12.70;70.80
7447;DHT22;3765;47.962;7.952;2022-11-14T10:10:32;12.80;70.60
7447;DHT22;3765;47.962;7.952;2022-11-14T10:13:13;12.80;70.70
7447;DHT22;3765;47.962;7.952;2022-11-14T10:15:48;12.80;70.40
7447;DHT22;3765;47.962;7.952;2022-11-14T10:18:32;13.00;70.70
7447;DHT22;3765;47.962;7.952;2022-11-14T10:21:12;12.80;70.10
7447;DHT22;3765;47.962;7.952;2022-11-14T10:23:50;12.60;70.20
7447;DHT22;3765;47.962;7.952;2022-11-14T10:26:26;12.50;70.60
7447;DHT22;3765;47.962;7.952;2022-11-14T10:29:14;12.40;70.70
7447;DHT22;3765;47.962;7.952;2022-11-14T10:31:51;12.40;70.80
7447;DHT22;3765;47.962;7.952;2022-11-14T10:34:28;12.30;70.80
7447;DHT22;3765;47.962;7.952;2022-11-14T10:37:04;12.30;70.90
7447;DHT22;3765;47.962;7.952;2022-11-14T10:39:36;12.30;71.00
7447;DHT22;3765;47.962;7.952;2022-11-14T10:42:12;12.30;70.80
7447;DHT22;3765;47.962;7.952;2022-11-14T10:44:46;12.30;70.90
7447;DHT22;3765;47.962;7.952;2022-11-14T10:47:18;12.30;71.00
7447;DHT22;3765;47.962;7.952;2022-11-14T10:49:51;12.30;71.10
7447;DHT22;3765;47.962;7.952;2022-11-14T10:52:25;12.40;71.00
7447;DHT22;3765;47.962;7.952;2022-11-14T10:55:05;12.40;71.00
7447;DHT22;3765;47.962;7.952;2022-11-14T10:57:33;12.40;71.00
7447;DHT22;3765;47.962;7.952;2022-11-14T11:00:09;12.40;71.00
7447;DHT22;3765;47.962;7.952;2022-11-14T11:02:49;12.40;70.90
7447;DHT22;3765;47.962;7.952;2022-11-14T11:05:21;12.40;71.00
7447;DHT22;3765;47.962;7.952;2022-11-14T11:07:51;12.50;71.10
7447;DHT22;3765;47.962;7.952;2022-11-14T11:10:58;12.60;71.10
7447;DHT22;3765;47.962;7.952;2022-11-14T11:13:50;12.70;70.80
7447;DHT22;3765;47.962;7.952;2022-11-14T11:16:21;12.70;70.70
7447;DHT22;3765;47.962;7.952;2022-11-14T11:18:50;12.80;70.70
7447;DHT22;3765;47.962;7.952;2022-11-14T11:21:21;12.80;70.50
7447;DHT22;3765;47.962;7.952;2022-11-14T11:23:51;12.80;70.50
7447;DHT22;3765;47.962;7.952;2022-11-14T11:26:21;12.80;70.40
7447;DHT22;3765;47.962;7.952;2022-11-14T11:29:05;12.90;70.30
7447;DHT22;3765;47.962;7.952;2022-11-14T11:31:58;13.00;70.00
7447;DHT22;3765;47.962;7.952;2022-11-14T11:34:29;13.00;70.00
7447;DHT22;3765;47.962;7.952;2022-11-14T11:37:03;13.00;69.90
7447;DHT22;3765;47.962;7.952;2022-11-14T11:39:34;13.10;69.70
7447;DHT22;3765;47.962;7.952;2022-11-14T11:42:07;13.20;69.60
7447;DHT22;3765;47.962;7.952;2022-11-14T11:44:39;13.30;69.30
7447;DHT22;3765;47.962;7.952;2022-11-14T11:47:13;13.30;69.20
7447;DHT22;3765;47.962;7.952;2022-11-14T11:49:45;13.30;69.10
7447;DHT22;3765;47.962;7.952;2022-11-14T11:52:29;13.40;68.90
7447;DHT22;3765;47.962;7.952;2022-11-14T11:55:03;13.40;68.80
7447;DHT22;3765;47.962;7.952;2022-11-14T11:57:35;13.50;68.50
7447;DHT22;3765;47.962;7.952;2022-11-14T12:00:12;13.60;68.40
7447;DHT22;3765;47.962;7.952;2022-11-14T12:02:43;13.50;68.20
7447;DHT22;3765;47.962;7.952;2022-11-14T12:05:17;13.50;68.10
7447;DHT22;3765;47.962;7.952;2022-11-14T12:07:59;13.50;67.90
7447;DHT22;3765;47.962;7.952;2022-11-14T12:10:32;13.50;67.70
7447;DHT22;3765;47.962;7.952;2022-11-14T12:13:45;13.60;67.60
7447;DHT22;3765;47.962;7.952;2022-11-14T12:16:27;13.70;67.30
7447;DHT22;3765;47.962;7.952;2022-11-14T12:19:25;13.80;67.00
7447;DHT22;3765;47.962;7.952;2022-11-14T12:22:10;13.80;67.00
7447;DHT22;3765;47.962;7.952;2022-11-14T12:27:56;13.90;66.70
7447;DHT22;3765;47.962;7.952;2022-11-14T12:30:30;13.90;66.60
7447;DHT22;3765;47.962;7.952;2022-11-14T12:33:02;14.00;66.10
7447;DHT22;3765;47.962;7.952;2022-11-14T12:35:32;14.10;66.00
7447;DHT22;3765;47.962;7.952;2022-11-14T12:38:02;14.20;66.00
7447;DHT22;3765;47.962;7.952;2022-11-14T12:40:35;14.20;65.80
7447;DHT22;3765;47.962;7.952;2022-11-14T12:43:25;14.20;65.60
7447;DHT22;3765;47.962;7.952;2022-11-14T12:46:03;14.20;65.60
7447;DHT22;3765;47.962;7.952;2022-11-14T12:48:36;14.20;65.50
7447;DHT22;3765;47.962;7.952;2022-11-14T12:53:49;14.30;65.40
7447;DHT22;3765;47.962;7.952;2022-11-14T12:56:58;14.30;65.20
7447;DHT22;3765;47.962;7.952;2022-11-14T12:59:38;14.30;65.50
7447;DHT22;3765;47.962;7.952;2022-11-14T13:05:26;14.50;65.20
7447;DHT22;3765;47.962;7.952;2022-11-14T13:08:08;14.50;65.00
7447;DHT22;3765;47.962;7.952;2022-11-14T13:10:42;14.50;65.00
7447;DHT22;3765;47.962;7.952;2022-11-14T13:13:13;14.50;64.90
7447;DHT22;3765;47.962;7.952;2022-11-14T13:16:00;14.40;64.50
7447;DHT22;3765;47.962;7.952;2022-11-14T13:18:54;14.40;64.70
7447;DHT22;3765;47.962;7.952;2022-11-14T13:22:18;14.50;64.60
7447;DHT22;3765;47.962;7.952;2022-11-14T13:25:18;14.40;64.60
7447;DHT22;3765;47.962;7.952;2022-11-14T13:27:47;14.30;64.70
7447;DHT22;3765;47.962;7.952;2022-11-14T13:31:15;14.30;64.70
7447;DHT22;3765;47.962;7.952;2022-11-14T13:33:46;14.40;64.70
7447;DHT22;3765;47.962;7.952;2022-11-14T13:36:24;14.40;64.60
7447;DHT22;3765;47.962;7.952;2022-11-14T13:39:21;14.50;64.40
7447;DHT22;3765;47.962;7.952;2022-11-14T13:42:10;14.60;64.20
7447;DHT22;3765;47.962;7.952;2022-11-14T13:48:16;14.70;64.10
7447;DHT22;3765;47.962;7.952;2022-11-14T13:50:50;14.70;63.50
7447;DHT22;3765;47.962;7.952;2022-11-14T13:53:22;14.70;63.80
7447;DHT22;3765;47.962;7.952;2022-11-14T13:55:58;14.70;63.80
7447;DHT22;3765;47.962;7.952;2022-11-14T14:01:45;14.70;63.60
7447;DHT22;3765;47.962;7.952;2022-11-14T14:04:27;14.50;63.70
7447;DHT22;3765;47.962;7.952;2022-11-14T14:07:06;14.50;63.90
7447;DHT22;3765;47.962;7.952;2022-11-14T14:09:45;14.60;63.80
7447;DHT22;3765;47.962;7.952;2022-11-14T14:12:30;14.70;63.80
7447;DHT22;3765;47.962;7.952;2022-11-14T14:15:07;14.80;63.40
7447;DHT22;3765;47.962;7.952;2022-11-14T14:17:46;14.80;63.40
7447;DHT22;3765;47.962;7.952;2022-11-14T14:20:30;14.80;63.30
7447;DHT22;3765;47.962;7.952;2022-11-14T14:23:05;14.80;63.20
7447;DHT22;3765;47.962;7.952;2022-11-14T14:25:42;14.80;63.00
7447;DHT22;3765;47.962;7.952;2022-11-14T14:28:19;14.70;63.20
7447;DHT22;3765;47.962;7.952;2022-11-14T14:31:03;14.60;63.20
7447;DHT22;3765;47.962;7.952;2022-11-14T14:33:40;14.50;63.30
7447;DHT22;3765;47.962;7.952;2022-11-14T14:36:21;14.40;63.40
7447;DHT22;3765;47.962;7.952;2022-11-14T14:39:11;14.40;63.50
7447;DHT22;3765;47.962;7.952;2022-11-14T14:41:42;14.20;63.40
7447;DHT22;3765;47.962;7.952;2022-11-14T14:44:18;14.10;63.90
7447;DHT22;3765;47.962;7.952;2022-11-14T14:46:48;14.10;64.00
7447;DHT22;3765;47.962;7.952;2022-11-14T14:49:20;14.00;64.10
7447;DHT22;3765;47.962;7.952;2022-11-14T14:51:50;14.00;64.10
7447;DHT22;3765;47.962;7.952;2022-11-14T14:54:25;13.80;64.40
7447;DHT22;3765;47.962;7.952;2022-11-14T14:56:56;13.80;64.90
7447;DHT22;3765;47.962;7.952;2022-11-14T14:59:27;13.60;65.20
7447;DHT22;3765;47.962;7.952;2022-11-14T15:01:57;13.50;65.70
7447;DHT22;3765;47.962;7.952;2022-11-14T15:04:26;13.40;66.20
7447;DHT22;3765;47.962;7.952;2022-11-14T15:06:56;13.30;66.70
7447;DHT22;3765;47.962;7.952;2022-11-14T15:09:26;13.10;67.30
7447;DHT22;3765;47.962;7.952;2022-11-14T15:11:58;12.90;67.60
7447;DHT22;3765;47.962;7.952;2022-11-14T15:14:28;13.00;68.00
7447;DHT22;3765;47.962;7.952;2022-11-14T15:16:58;12.90;68.30
7447;DHT22;3765;47.962;7.952;2022-11-14T15:19:32;12.90;68.30
7447;DHT22;3765;47.962;7.952;2022-11-14T15:22:21;12.90;68.30
7447;DHT22;3765;47.962;7.952;2022-11-14T15:25:16;12.90;68.30
7447;DHT22;3765;47.962;7.952;2022-11-14T15:27:48;12.90;68.30
7447;DHT22;3765;47.962;7.952;2022-11-14T15:30:22;12.90;68.30
7447;DHT22;3765;47.962;7.952;2022-11-14T15:32:53;12.90;68.40
7447;DHT22;3765;47.962;7.952;2022-11-14T15:35:27;12.90;68.30
7447;DHT22;3765;47.962;7.952;2022-11-14T15:38:04;12.80;68.60
7447;DHT22;3765;47.962;7.952;2022-11-14T15:41:10;12.80;69.30
7447;DHT22;3765;47.962;7.952;2022-11-14T15:43:47;12.70;69.60
7447;DHT22;3765;47.962;7.952;2022-11-14T15:46:45;12.60;69.80
7447;DHT22;3765;47.962;7.952;2022-11-14T15:49:20;12.60;70.10
7447;DHT22;3765;47.962;7.952;2022-11-14T15:51:51;12.60;70.30
7447;DHT22;3765;47.962;7.952;2022-11-14T15:54:27;12.60;70.40
7447;DHT22;3765;47.962;7.952;2022-11-14T15:57:04;12.60;70.60
7447;DHT22;3765;47.962;7.952;2022-11-14T15:59:33;12.60;70.60
7447;DHT22;3765;47.962;7.952;2022-11-14T16:02:08;12.60;70.70
7447;DHT22;3765;47.962;7.952;2022-11-14T16:04:37;12.60;70.70
7447;DHT22;3765;47.962;7.952;2022-11-14T16:07:14;12.50;70.80
7447;DHT22;3765;47.962;7.952;2022-11-14T16:09:44;12.50;70.70
7447;DHT22;3765;47.962;7.952;2022-11-14T16:12:12;12.40;70.50
7447;DHT22;3765;47.962;7.952;2022-11-14T16:14:41;12.50;70.30
7447;DHT22;3765;47.962;7.952;2022-11-14T16:17:12;12.40;70.60
7447;DHT22;3765;47.962;7.952;2022-11-14T16:19:41;12.30;70.80
7447;DHT22;3765;47.962;7.952;2022-11-14T16:22:11;12.20;70.90
7447;DHT22;3765;47.962;7.952;2022-11-14T16:24:40;12.30;71.10
7447;DHT22;3765;47.962;7.952;2022-11-14T16:27:09;12.30;71.00
7447;DHT22;3765;47.962;7.952;2022-11-14T16:29:37;12.30;71.10
7447;DHT22;3765;47.962;7.952;2022-11-14T16:32:08;12.20;71.00
7447;DHT22;3765;47.962;7.952;2022-11-14T16:34:37;12.20;71.10
7447;DHT22;3765;47.962;7.952;2022-11-14T16:37:05;12.30;71.00
7447;DHT22;3765;47.962;7.952;2022-11-14T16:39:33;12.20;70.90
7447;DHT22;3765;47.962;7.952;2022-11-14T16:42:01;12.20;70.90
7447;DHT22;3765;47.962;7.952;2022-11-14T16:44:31;12.20;70.80
7447;DHT22;3765;47.962;7.952;2022-11-14T16:47:09;12.30;70.50
7447;DHT22;3765;47.962;7.952;2022-11-14T16:49:39;12.40;70.20
7447;DHT22;3765;47.962;7.952;2022-11-14T16:52:09;12.40;69.90
7447;DHT22;3765;47.962;7.952;2022-11-14T16:54:38;12.50;69.90
7447;DHT22;3765;47.962;7.952;2022-11-14T16:57:06;12.40;69.70
7447;DHT22;3765;47.962;7.952;2022-11-14T16:59:36;12.40;69.60
7447;DHT22;3765;47.962;7.952;2022-11-14T17:02:04;12.50;69.50
7447;DHT22;3765;47.962;7.952;2022-11-14T17:04:32;12.40;69.40
7447;DHT22;3765;47.962;7.952;2022-11-14T17:07:01;12.50;69.40
7447;DHT22;3765;47.962;7.952;2022-11-14T17:09:29;12.50;69.30